Time;durP1;ratioP1;P1;durP2;ratioP2;P2;SDS_P1;SDS_P2;PMS_P1;PMS_P2;Temp;Humidity;BMP_temperature;BMP_pressure;BME280_temperature;BME280_humidity;BME280_pressure;Samples;Min_cycle;Max_cycle;Signal;HPM_P1;HPM_P2
2021/09/10 00:02:22;;;;;;;;;;;18.50;99.90;;;;;;5105179;27;19924;-88
2021/09/10 00:04:47;;;;;;;;;;;18.50;99.90;;;;;;5092893;28;19935;-88
2021/09/10 00:07:13;;;;;;;;;;;18.60;99.90;;;;;;5118570;27;20053;-88
2021/09/10 00:09:39;;;;;;;;;;;18.50;99.90;;;;;;5098962;28;19923;-87
2021/09/10 00:12:04;;;;;;;;;;;18.50;99.90;;;;;;5115802;27;19935;-87
2021/09/10 00:14:30;;;;;;;;;;;18.50;99.90;;;;;;5119931;27;20283;-88
2021/09/10 00:16:55;;;;;;;;;;;18.50;99.90;;;;;;5109197;27;19924;-88
2021/09/10 00:19:21;;;;;;;;;;;18.50;99.90;;;;;;5103385;28;20006;-88
2021/09/10 00:21:47;;;;;;;;;;;18.50;99.90;;;;;;5126303;27;20376;-87
2021/09/10 00:24:12;;;;;;;;;;;18.50;99.90;;;;;;5111857;27;20374;-87
2021/09/10 00:26:38;;;;;;;;;;;18.50;99.90;;;;;;5107815;27;20378;-87
2021/09/10 00:29:03;;;;;;;;;;;18.50;99.90;;;;;;5096492;28;19939;-88
2021/09/10 00:31:29;;;;;;;;;;;18.50;99.90;;;;;;5126144;27;19924;-87
2021/09/10 00:33:54;;;;;;;;;;;18.60;99.90;;;;;;5105597;28;19972;-87
2021/09/10 00:36:20;;;;;;;;;;;18.50;99.90;;;;;;5103258;28;19923;-87
2021/09/10 00:38:46;;;;;;;;;;;18.60;99.90;;;;;;5101358;28;20393;-87
2021/09/10 00:41:11;;;;;;;;;;;18.60;99.90;;;;;;5109500;27;19973;-88
2021/09/10 00:43:37;;;;;;;;;;;18.60;99.90;;;;;;5123647;27;19927;-88
2021/09/10 00:46:03;;;;;;;;;;;18.60;99.90;;;;;;5092066;27;20442;-88
2021/09/10 00:48:28;;;;;;;;;;;18.60;99.90;;;;;;5092547;28;19920;-88
2021/09/10 00:50:54;;;;;;;;;;;18.60;99.90;;;;;;5088887;28;19924;-88
2021/09/10 00:53:20;;;;;;;;;;;18.70;99.90;;;;;;5084493;28;19920;-88
2021/09/10 00:55:46;;;;;;;;;;;18.70;99.90;;;;;;5088493;28;19923;-88
2021/09/10 00:58:12;;;;;;;;;;;18.70;99.90;;;;;;5090015;28;20379;-88
2021/09/10 01:00:38;;;;;;;;;;;18.70;99.90;;;;;;5089147;28;20006;-88
2021/09/10 01:03:03;;;;;;;;;;;18.70;99.90;;;;;;5089865;28;20010;-88
2021/09/10 01:05:29;;;;;;;;;;;18.70;99.90;;;;;;5113097;27;19932;-87
2021/09/10 01:07:56;;;;;;;;;;;18.70;99.90;;;;;;5086315;28;20463;-88
2021/09/10 01:10:22;;;;;;;;;;;18.70;99.90;;;;;;5090605;28;20336;-88
2021/09/10 01:12:49;;;;;;;;;;;18.70;99.90;;;;;;5108075;28;19923;-88
2021/09/10 01:15:15;;;;;;;;;;;18.70;99.90;;;;;;5109080;28;20263;-88
2021/09/10 01:17:41;;;;;;;;;;;18.70;99.90;;;;;;5090807;28;19955;-87
2021/09/10 01:20:07;;;;;;;;;;;18.70;99.90;;;;;;5107513;28;19981;-88
2021/09/10 01:22:33;;;;;;;;;;;18.70;99.90;;;;;;5090829;28;19923;-87
2021/09/10 01:25:06;;;;;;;;;;;18.70;99.90;;;;;;5120083;27;20224;-87
2021/09/10 01:27:32;;;;;;;;;;;18.70;99.90;;;;;;5079904;28;19920;-87
2021/09/10 01:29:58;;;;;;;;;;;18.70;99.90;;;;;;5059258;28;19926;-88
2021/09/10 01:32:24;;;;;;;;;;;18.70;99.90;;;;;;5107718;28;19930;-88
2021/09/10 01:34:49;;;;;;;;;;;18.70;99.90;;;;;;5107253;28;19954;-88
2021/09/10 01:37:15;;;;;;;;;;;18.70;99.90;;;;;;5108434;28;20342;-87
2021/09/10 01:39:41;;;;;;;;;;;18.70;99.90;;;;;;5125198;27;20278;-88
2021/09/10 01:42:06;;;;;;;;;;;18.70;99.90;;;;;;5089606;28;19924;-88
2021/09/10 01:44:32;;;;;;;;;;;18.70;99.90;;;;;;5108635;28;20302;-88
2021/09/10 01:46:57;;;;;;;;;;;18.70;99.90;;;;;;5124897;27;19920;-88
2021/09/10 01:49:23;;;;;;;;;;;18.70;99.90;;;;;;5090325;28;19936;-87
2021/09/10 01:51:49;;;;;;;;;;;18.70;99.90;;;;;;5090185;28;19931;-87
2021/09/10 01:54:14;;;;;;;;;;;18.70;99.90;;;;;;5124982;27;19927;-88
2021/09/10 01:56:40;;;;;;;;;;;18.70;99.90;;;;;;5095273;28;19958;-87
2021/09/10 01:59:05;;;;;;;;;;;18.70;99.90;;;;;;5125169;27;20022;-87
2021/09/10 02:01:31;;;;;;;;;;;18.70;99.90;;;;;;5111975;28;19935;-87
2021/09/10 02:03:58;;;;;;;;;;;18.70;99.90;;;;;;5073028;28;19939;-88
2021/09/10 02:06:23;;;;;;;;;;;18.70;99.90;;;;;;5090164;28;19924;-88
2021/09/10 02:08:49;;;;;;;;;;;18.70;99.90;;;;;;5091339;28;20382;-88
2021/09/10 02:11:14;;;;;;;;;;;18.70;99.90;;;;;;5105779;28;19915;-87
2021/09/10 02:13:40;;;;;;;;;;;18.70;99.90;;;;;;5072313;28;19920;-88
2021/09/10 02:16:06;;;;;;;;;;;18.70;99.90;;;;;;5081526;28;19920;-87
2021/09/10 02:18:32;;;;;;;;;;;18.60;99.90;;;;;;5127402;27;19924;-87
2021/09/10 02:20:57;;;;;;;;;;;18.60;99.90;;;;;;5094298;28;19923;-87
2021/09/10 02:23:23;;;;;;;;;;;18.50;99.90;;;;;;5093999;28;20028;-87
2021/09/10 02:25:48;;;;;;;;;;;18.50;99.90;;;;;;5110423;28;19924;-87
2021/09/10 02:28:14;;;;;;;;;;;18.50;99.90;;;;;;5128159;27;20059;-87
2021/09/10 02:30:39;;;;;;;;;;;18.50;99.90;;;;;;5094387;28;19920;-87
2021/09/10 02:33:05;;;;;;;;;;;18.50;99.90;;;;;;5126842;27;19923;-87
2021/09/10 02:35:31;;;;;;;;;;;18.40;99.90;;;;;;5099158;28;19920;-87
2021/09/10 02:37:56;;;;;;;;;;;18.50;99.90;;;;;;5094258;28;19931;-87
2021/09/10 02:40:22;;;;;;;;;;;18.40;99.90;;;;;;5093668;28;19915;-87
2021/09/10 02:42:48;;;;;;;;;;;18.40;99.90;;;;;;5092687;28;19920;-87
2021/09/10 02:45:14;;;;;;;;;;;18.40;99.90;;;;;;5116381;27;19935;-87
2021/09/10 02:47:39;;;;;;;;;;;18.40;99.90;;;;;;5090204;28;19928;-88
2021/09/10 02:50:06;;;;;;;;;;;18.40;99.90;;;;;;5077947;28;19919;-88
2021/09/10 02:52:35;;;;;;;;;;;18.40;99.90;;;;;;5087271;28;19924;-88
2021/09/10 02:55:00;;;;;;;;;;;18.30;99.90;;;;;;5105885;28;19920;-87
2021/09/10 02:57:26;;;;;;;;;;;18.30;99.90;;;;;;5122051;27;19970;-87
2021/09/10 02:59:51;;;;;;;;;;;18.20;99.90;;;;;;5091055;28;19926;-87
2021/09/10 03:02:17;;;;;;;;;;;18.20;99.90;;;;;;5101620;28;19936;-87
2021/09/10 03:04:45;;;;;;;;;;;18.20;99.90;;;;;;5128024;27;19932;-88
2021/09/10 03:07:11;;;;;;;;;;;18.20;99.90;;;;;;5121236;27;21033;-87
2021/09/10 03:09:37;;;;;;;;;;;18.20;99.90;;;;;;5127642;27;19924;-87
2021/09/10 03:12:02;;;;;;;;;;;18.20;99.90;;;;;;5123996;27;19926;-88
2021/09/10 03:14:30;;;;;;;;;;;18.20;99.90;;;;;;5111214;28;19923;-88
2021/09/10 03:16:56;;;;;;;;;;;18.20;99.90;;;;;;5120092;27;19920;-88
2021/09/10 03:19:22;;;;;;;;;;;18.20;99.90;;;;;;5094438;28;19926;-87
2021/09/10 03:21:47;;;;;;;;;;;18.20;99.90;;;;;;5093959;28;19965;-88
2021/09/10 03:24:13;;;;;;;;;;;18.10;99.90;;;;;;5075700;28;19928;-87
2021/09/10 03:26:41;;;;;;;;;;;18.10;99.90;;;;;;5075800;28;19927;-87
2021/09/10 03:29:06;;;;;;;;;;;18.10;99.90;;;;;;5093816;28;19926;-87
2021/09/10 03:31:32;;;;;;;;;;;18.10;99.90;;;;;;5091277;28;20014;-87
2021/09/10 03:33:58;;;;;;;;;;;18.10;99.90;;;;;;5089959;28;19920;-87
2021/09/10 03:36:23;;;;;;;;;;;18.10;99.90;;;;;;5126736;27;19926;-87
2021/09/10 03:38:49;;;;;;;;;;;18.00;99.90;;;;;;5125924;27;19931;-87
2021/09/10 03:41:14;;;;;;;;;;;18.00;99.90;;;;;;5120852;27;19958;-87
2021/09/10 03:43:42;;;;;;;;;;;18.00;99.90;;;;;;5109226;27;20011;-87
2021/09/10 03:46:10;;;;;;;;;;;18.00;99.90;;;;;;5088120;28;19940;-88
2021/09/10 03:48:36;;;;;;;;;;;18.00;99.90;;;;;;5124436;27;19920;-88
2021/09/10 03:51:02;;;;;;;;;;;18.10;99.90;;;;;;5105499;28;19972;-87
2021/09/10 03:53:27;;;;;;;;;;;18.10;99.90;;;;;;5095859;28;20082;-88
2021/09/10 03:55:53;;;;;;;;;;;18.10;99.90;;;;;;5076367;28;19919;-88
2021/09/10 03:58:19;;;;;;;;;;;18.10;99.90;;;;;;5090804;28;20397;-88
2021/09/10 04:00:44;;;;;;;;;;;18.10;99.90;;;;;;5091310;28;19930;-89
2021/09/10 04:03:10;;;;;;;;;;;18.10;99.90;;;;;;5127551;27;19924;-90
2021/09/10 04:05:35;;;;;;;;;;;18.20;99.90;;;;;;5127503;27;19924;-89
2021/09/10 04:08:01;;;;;;;;;;;18.20;99.90;;;;;;5125076;27;19924;-90
2021/09/10 04:10:26;;;;;;;;;;;18.20;99.90;;;;;;5109562;28;19942;-89
2021/09/10 04:12:53;;;;;;;;;;;18.20;99.90;;;;;;5118951;27;19981;-89
2021/09/10 04:15:19;;;;;;;;;;;18.20;99.90;;;;;;5127455;27;20001;-89
2021/09/10 04:17:44;;;;;;;;;;;18.20;99.90;;;;;;5125010;27;19932;-88
2021/09/10 04:20:12;;;;;;;;;;;18.20;99.90;;;;;;5123621;27;20646;-87
2021/09/10 04:22:38;;;;;;;;;;;18.20;99.90;;;;;;5086001;28;19923;-88
2021/09/10 04:25:04;;;;;;;;;;;18.20;99.90;;;;;;5107588;28;20029;-88
2021/09/10 04:27:29;;;;;;;;;;;18.20;99.90;;;;;;5096087;28;19927;-88
2021/09/10 04:29:57;;;;;;;;;;;18.20;99.90;;;;;;5090180;28;19977;-88
2021/09/10 04:32:22;;;;;;;;;;;18.20;99.90;;;;;;5070950;28;20545;-88
2021/09/10 04:34:49;;;;;;;;;;;18.20;99.90;;;;;;5090261;28;20084;-87
2021/09/10 04:37:14;;;;;;;;;;;18.20;99.90;;;;;;5120585;27;19924;-88
2021/09/10 04:39:40;;;;;;;;;;;18.20;99.90;;;;;;5105285;28;19945;-87
2021/09/10 04:42:05;;;;;;;;;;;18.20;99.90;;;;;;5124760;27;19930;-88
2021/09/10 04:44:31;;;;;;;;;;;18.20;99.90;;;;;;5122459;27;19992;-88
2021/09/10 04:46:57;;;;;;;;;;;18.20;99.90;;;;;;5106202;28;19923;-88
2021/09/10 04:49:22;;;;;;;;;;;18.20;99.90;;;;;;5091308;28;19920;-87
2021/09/10 04:51:48;;;;;;;;;;;18.20;99.90;;;;;;5109244;28;20302;-88
2021/09/10 04:54:15;;;;;;;;;;;18.20;99.90;;;;;;5097416;28;19920;-87
2021/09/10 04:56:42;;;;;;;;;;;18.20;99.90;;;;;;5105775;28;19927;-87
2021/09/10 04:59:08;;;;;;;;;;;18.20;99.90;;;;;;5080571;28;19927;-87
2021/09/10 05:01:33;;;;;;;;;;;18.10;99.90;;;;;;5072977;28;19920;-87
2021/09/10 05:03:59;;;;;;;;;;;18.10;99.90;;;;;;5091757;28;19928;-87
2021/09/10 05:06:25;;;;;;;;;;;18.10;99.90;;;;;;5074895;28;19927;-87
2021/09/10 05:08:50;;;;;;;;;;;18.10;99.90;;;;;;5090124;28;20018;-88
2021/09/10 05:11:16;;;;;;;;;;;18.10;99.90;;;;;;5092311;28;19961;-87
2021/09/10 05:13:41;;;;;;;;;;;18.10;99.90;;;;;;5055080;28;20295;-87
2021/09/10 05:16:07;;;;;;;;;;;18.10;99.90;;;;;;5104514;28;19923;-87
2021/09/10 05:18:32;;;;;;;;;;;18.10;99.90;;;;;;5104506;28;19923;-87
2021/09/10 05:20:59;;;;;;;;;;;18.00;99.90;;;;;;5105529;28;20435;-87
2021/09/10 05:23:25;;;;;;;;;;;18.00;99.90;;;;;;5103412;28;20022;-87
2021/09/10 05:25:50;;;;;;;;;;;18.00;99.90;;;;;;5105770;28;20058;-87
2021/09/10 05:28:16;;;;;;;;;;;18.00;99.90;;;;;;5104756;28;19924;-87
2021/09/10 05:30:41;;;;;;;;;;;18.00;99.90;;;;;;5086271;28;19920;-88
2021/09/10 05:33:07;;;;;;;;;;;18.00;99.90;;;;;;5099868;28;19923;-87
2021/09/10 05:35:33;;;;;;;;;;;18.00;99.90;;;;;;5074843;28;19927;-87
2021/09/10 05:37:58;;;;;;;;;;;18.00;99.90;;;;;;5066786;28;19988;-88
2021/09/10 05:40:24;;;;;;;;;;;18.00;99.90;;;;;;5107438;28;20435;-88
2021/09/10 05:42:50;;;;;;;;;;;18.00;99.90;;;;;;5090985;28;19931;-88
2021/09/10 05:45:15;;;;;;;;;;;18.00;99.90;;;;;;5107542;28;20021;-88
2021/09/10 05:47:41;;;;;;;;;;;18.00;99.90;;;;;;5124294;27;19934;-87
2021/09/10 05:50:07;;;;;;;;;;;18.10;99.90;;;;;;5125147;27;19924;-88
2021/09/10 05:52:33;;;;;;;;;;;18.10;99.90;;;;;;5120477;27;19924;-87
2021/09/10 05:54:59;;;;;;;;;;;18.10;99.90;;;;;;5088330;28;19927;-88
2021/09/10 05:57:24;;;;;;;;;;;18.10;99.90;;;;;;5104441;28;20016;-87
2021/09/10 05:59:50;;;;;;;;;;;18.20;99.90;;;;;;5103209;28;19924;-87
2021/09/10 06:02:16;;;;;;;;;;;18.20;99.90;;;;;;5087346;28;19920;-88
2021/09/10 06:04:42;;;;;;;;;;;18.30;99.90;;;;;;5104880;28;19929;-87
2021/09/10 06:07:07;;;;;;;;;;;18.30;99.90;;;;;;5103198;28;19932;-88
2021/09/10 06:09:33;;;;;;;;;;;18.30;99.90;;;;;;5090396;28;20020;-87
2021/09/10 06:11:59;;;;;;;;;;;18.40;99.90;;;;;;5088910;28;19927;-88
2021/09/10 06:14:24;;;;;;;;;;;18.40;99.90;;;;;;5107131;28;19927;-87
2021/09/10 06:16:51;;;;;;;;;;;18.40;99.90;;;;;;5124693;27;20387;-88
2021/09/10 06:19:16;;;;;;;;;;;18.40;99.90;;;;;;5125119;28;19924;-88
2021/09/10 06:21:42;;;;;;;;;;;18.50;99.90;;;;;;5107536;27;19931;-88
2021/09/10 06:24:08;;;;;;;;;;;18.50;99.90;;;;;;5090204;28;19960;-87
2021/09/10 06:26:34;;;;;;;;;;;18.60;99.90;;;;;;5107891;28;19931;-87
2021/09/10 06:29:00;;;;;;;;;;;18.60;99.90;;;;;;5123448;27;20401;-88
2021/09/10 06:31:26;;;;;;;;;;;18.60;99.90;;;;;;5124090;27;19916;-88
2021/09/10 06:33:51;;;;;;;;;;;18.60;99.90;;;;;;5124703;28;19924;-88
2021/09/10 06:36:17;;;;;;;;;;;18.70;99.90;;;;;;5122575;28;19923;-88
2021/09/10 06:38:43;;;;;;;;;;;18.70;99.90;;;;;;5101519;28;19915;-87
2021/09/10 06:41:08;;;;;;;;;;;18.70;99.90;;;;;;5106348;28;20442;-88
2021/09/10 06:43:34;;;;;;;;;;;18.80;99.90;;;;;;5123870;27;19932;-88
2021/09/10 06:46:00;;;;;;;;;;;18.80;99.90;;;;;;5124583;27;20268;-88
2021/09/10 06:48:25;;;;;;;;;;;18.80;99.90;;;;;;5107693;27;19927;-88
2021/09/10 06:50:51;;;;;;;;;;;18.80;99.90;;;;;;5090311;28;19955;-88
2021/09/10 06:53:17;;;;;;;;;;;18.90;99.90;;;;;;5089263;28;19928;-88
2021/09/10 06:55:42;;;;;;;;;;;18.90;99.90;;;;;;5115140;27;19969;-88
2021/09/10 06:58:08;;;;;;;;;;;18.90;99.90;;;;;;5087283;28;20369;-88
2021/09/10 07:00:34;;;;;;;;;;;19.00;99.90;;;;;;5123635;27;19920;-88
2021/09/10 07:02:59;;;;;;;;;;;19.00;99.90;;;;;;5076343;28;20053;-88
2021/09/10 07:05:25;;;;;;;;;;;19.10;99.90;;;;;;5095080;28;20387;-88
2021/09/10 07:07:52;;;;;;;;;;;19.10;99.90;;;;;;5090728;28;19930;-88
2021/09/10 07:10:18;;;;;;;;;;;19.10;99.90;;;;;;5103077;28;20029;-87
2021/09/10 07:12:44;;;;;;;;;;;19.20;99.90;;;;;;5092368;28;19919;-87
2021/09/10 07:15:09;;;;;;;;;;;19.20;99.90;;;;;;5102817;28;19930;-88
2021/09/10 07:17:35;;;;;;;;;;;19.20;99.90;;;;;;5107365;27;19915;-88
2021/09/10 07:20:01;;;;;;;;;;;19.20;99.90;;;;;;5074587;28;20314;-87
2021/09/10 07:22:26;;;;;;;;;;;19.20;99.90;;;;;;5073023;28;19927;-87
2021/09/10 07:24:52;;;;;;;;;;;19.30;99.90;;;;;;5110044;28;19971;-86
2021/09/10 07:27:18;;;;;;;;;;;19.30;99.90;;;;;;5093902;28;19931;-91
2021/09/10 07:29:44;;;;;;;;;;;19.30;99.90;;;;;;5127359;27;20006;-90
2021/09/10 07:32:09;;;;;;;;;;;19.40;99.90;;;;;;5128298;27;19988;-87
2021/09/10 07:34:35;;;;;;;;;;;19.40;99.90;;;;;;5103018;28;20406;-87
2021/09/10 07:37:00;;;;;;;;;;;19.40;99.90;;;;;;5091656;28;19934;-87
2021/09/10 07:39:26;;;;;;;;;;;19.40;99.90;;;;;;5115934;27;19931;-87
2021/09/10 07:41:52;;;;;;;;;;;19.50;99.90;;;;;;5092630;28;19927;-87
2021/09/10 07:44:18;;;;;;;;;;;19.50;99.90;;;;;;5074629;28;19923;-87
2021/09/10 07:46:45;;;;;;;;;;;19.50;99.90;;;;;;5093317;28;20585;-87
2021/09/10 07:49:11;;;;;;;;;;;19.60;99.90;;;;;;5115929;27;20003;-88
2021/09/10 07:51:37;;;;;;;;;;;19.60;99.90;;;;;;5091338;28;19928;-87
2021/09/10 07:54:03;;;;;;;;;;;19.70;99.90;;;;;;5108520;28;19955;-87
2021/09/10 07:56:29;;;;;;;;;;;19.70;99.90;;;;;;5076267;28;19923;-88
2021/09/10 07:58:55;;;;;;;;;;;19.70;99.90;;;;;;5091296;28;20397;-87
2021/09/10 08:01:20;;;;;;;;;;;19.70;99.90;;;;;;5097909;28;19927;-87
2021/09/10 08:03:46;;;;;;;;;;;19.70;99.90;;;;;;5075504;28;19928;-86
2021/09/10 08:06:12;;;;;;;;;;;19.70;99.90;;;;;;5088801;28;19928;-87
2021/09/10 08:08:37;;;;;;;;;;;19.70;99.90;;;;;;5075887;28;19983;-87
2021/09/10 08:11:04;;;;;;;;;;;19.80;99.90;;;;;;5106809;28;19924;-87
2021/09/10 08:13:30;;;;;;;;;;;19.80;99.90;;;;;;5124079;27;19924;-89
2021/09/10 08:15:56;;;;;;;;;;;19.80;99.90;;;;;;5110425;28;19927;-89
2021/09/10 08:18:22;;;;;;;;;;;19.80;99.90;;;;;;5120845;27;19924;-89
2021/09/10 08:20:47;;;;;;;;;;;19.80;99.90;;;;;;5106033;28;19924;-89
2021/09/10 08:23:13;;;;;;;;;;;19.90;99.90;;;;;;5106707;28;20011;-90
2021/09/10 08:25:39;;;;;;;;;;;19.90;99.90;;;;;;5110271;28;19924;-90
2021/09/10 08:28:04;;;;;;;;;;;19.90;99.90;;;;;;5071544;28;20378;-89
2021/09/10 08:30:31;;;;;;;;;;;19.90;99.90;;;;;;5107651;28;19920;-90
2021/09/10 08:32:57;;;;;;;;;;;19.90;99.90;;;;;;5078802;28;19924;-90
2021/09/10 08:35:23;;;;;;;;;;;19.90;99.90;;;;;;5105403;28;19982;-90
2021/09/10 08:37:49;;;;;;;;;;;20.00;99.90;;;;;;5114161;27;19920;-89
2021/09/10 08:40:15;;;;;;;;;;;20.00;99.90;;;;;;5127008;27;19931;-89
2021/09/10 08:42:42;;;;;;;;;;;20.00;99.90;;;;;;5091920;28;20386;-87
2021/09/10 08:45:08;;;;;;;;;;;20.00;99.90;;;;;;5125584;27;20018;-87
2021/09/10 08:47:34;;;;;;;;;;;19.90;99.90;;;;;;5107296;28;19998;-87
2021/09/10 08:49:59;;;;;;;;;;;19.90;99.90;;;;;;5105085;27;19930;-87
2021/09/10 08:52:25;;;;;;;;;;;20.00;99.90;;;;;;5090513;28;20418;-87
2021/09/10 08:54:50;;;;;;;;;;;20.00;99.90;;;;;;5074623;28;19920;-87
2021/09/10 08:57:16;;;;;;;;;;;20.00;99.90;;;;;;5087444;28;20412;-87
2021/09/10 08:59:41;;;;;;;;;;;20.00;99.90;;;;;;5108113;28;19927;-87
2021/09/10 09:02:07;;;;;;;;;;;20.00;99.90;;;;;;5107748;28;19931;-87
2021/09/10 09:04:35;;;;;;;;;;;20.00;99.90;;;;;;5089313;28;20441;-87
2021/09/10 09:07:03;;;;;;;;;;;20.00;99.90;;;;;;5106883;28;19931;-87
2021/09/10 09:09:34;;;;;;;;;;;20.00;99.90;;;;;;5125054;27;19920;-87
2021/09/10 09:12:14;;;;;;;;;;;19.90;99.90;;;;;;5121750;27;20349;-86
2021/09/10 09:14:43;;;;;;;;;;;19.90;99.90;;;;;;5114377;27;19924;-87
2021/09/10 09:17:23;;;;;;;;;;;19.90;99.90;;;;;;5090058;28;19939;-87
2021/09/10 09:20:07;;;;;;;;;;;19.90;99.90;;;;;;5087252;28;19927;-87
2021/09/10 09:22:49;;;;;;;;;;;19.90;99.90;;;;;;5106933;28;19999;-87
2021/09/10 09:25:15;;;;;;;;;;;19.90;99.90;;;;;;5090567;28;20398;-87
2021/09/10 09:27:41;;;;;;;;;;;19.90;99.90;;;;;;5104973;28;19927;-87
2021/09/10 09:30:07;;;;;;;;;;;19.90;99.90;;;;;;5091085;28;19927;-87
2021/09/10 09:32:45;;;;;;;;;;;19.90;99.90;;;;;;5062464;28;19920;-87
2021/09/10 09:35:11;;;;;;;;;;;19.90;99.90;;;;;;5103898;28;19942;-88
2021/09/10 09:37:37;;;;;;;;;;;19.90;99.90;;;;;;5077070;28;20378;-87
2021/09/10 09:40:03;;;;;;;;;;;19.90;99.90;;;;;;5071281;28;19924;-87
2021/09/10 09:42:29;;;;;;;;;;;19.90;99.90;;;;;;5104328;28;19969;-87
2021/09/10 09:45:08;;;;;;;;;;;19.90;99.90;;;;;;5088139;28;19935;-88
2021/09/10 09:47:35;;;;;;;;;;;19.90;99.90;;;;;;5124682;27;19977;-87
2021/09/10 09:50:07;;;;;;;;;;;20.00;99.90;;;;;;5086697;28;19924;-87
2021/09/10 09:52:33;;;;;;;;;;;20.00;99.90;;;;;;5105118;28;19923;-88
2021/09/10 09:54:59;;;;;;;;;;;20.00;99.90;;;;;;5103607;28;19920;-87
2021/09/10 09:57:26;;;;;;;;;;;20.00;99.90;;;;;;5119127;28;20008;-87
2021/09/10 09:59:52;;;;;;;;;;;20.10;99.90;;;;;;5094655;28;20391;-87
2021/09/10 10:02:17;;;;;;;;;;;20.00;99.90;;;;;;5107636;28;19973;-88
2021/09/10 10:04:43;;;;;;;;;;;20.10;99.90;;;;;;5077139;28;19928;-88
2021/09/10 10:07:09;;;;;;;;;;;20.10;99.90;;;;;;5090455;28;20023;-88
2021/09/10 10:09:36;;;;;;;;;;;20.10;99.90;;;;;;5105799;28;19924;-88
2021/09/10 10:12:02;;;;;;;;;;;20.10;99.90;;;;;;5087600;28;19923;-88
2021/09/10 10:14:32;;;;;;;;;;;20.20;99.90;;;;;;5089115;28;19980;-87
2021/09/10 10:17:01;;;;;;;;;;;20.20;99.90;;;;;;5090041;28;19928;-86
2021/09/10 10:19:33;;;;;;;;;;;20.30;99.90;;;;;;5106001;28;19924;-87
2021/09/10 10:22:00;;;;;;;;;;;20.20;99.90;;;;;;5123294;28;19980;-87
2021/09/10 10:24:36;;;;;;;;;;;20.30;99.90;;;;;;5089385;28;19934;-87
2021/09/10 10:27:20;;;;;;;;;;;20.40;99.90;;;;;;5069181;28;19928;-88
2021/09/10 10:29:45;;;;;;;;;;;20.40;99.90;;;;;;5118146;28;19920;-87
2021/09/10 10:32:11;;;;;;;;;;;20.50;99.90;;;;;;5070552;28;19920;-87
2021/09/10 10:34:57;;;;;;;;;;;20.50;99.90;;;;;;5116991;28;20022;-87
2021/09/10 10:37:59;;;;;;;;;;;20.60;99.90;;;;;;5134863;27;19931;-86
2021/09/10 10:40:42;;;;;;;;;;;20.60;99.90;;;;;;5029289;28;19925;-87
2021/09/10 10:43:17;;;;;;;;;;;20.70;99.90;;;;;;5100410;28;19927;-87
2021/09/10 10:45:44;;;;;;;;;;;20.70;99.90;;;;;;5128363;27;20014;-87
2021/09/10 10:48:28;;;;;;;;;;;20.70;99.90;;;;;;5109626;28;19927;-87
2021/09/10 10:50:54;;;;;;;;;;;20.70;99.90;;;;;;5145718;27;20827;-87
2021/09/10 10:53:20;;;;;;;;;;;20.80;99.90;;;;;;5128089;27;20010;-87
2021/09/10 10:55:45;;;;;;;;;;;20.80;99.90;;;;;;5127003;27;20010;-88
2021/09/10 10:58:24;;;;;;;;;;;20.80;99.90;;;;;;5120965;27;19924;-88
2021/09/10 11:00:51;;;;;;;;;;;20.80;99.90;;;;;;5093253;28;19919;-87
2021/09/10 11:03:21;;;;;;;;;;;20.90;99.90;;;;;;5083147;28;19919;-87
2021/09/10 11:05:47;;;;;;;;;;;20.90;99.90;;;;;;5127890;27;19930;-87
2021/09/10 11:08:17;;;;;;;;;;;20.90;99.90;;;;;;5128069;27;19920;-89
2021/09/10 11:10:43;;;;;;;;;;;20.90;99.90;;;;;;5091415;28;19924;-88
2021/09/10 11:13:08;;;;;;;;;;;20.90;99.90;;;;;;5074187;28;19922;-88
2021/09/10 11:15:35;;;;;;;;;;;21.00;99.90;;;;;;5094847;28;19924;-88
2021/09/10 11:18:03;;;;;;;;;;;21.10;99.90;;;;;;5092821;28;19967;-87
2021/09/10 11:20:30;;;;;;;;;;;21.10;99.90;;;;;;5116416;27;19969;-89
2021/09/10 11:22:56;;;;;;;;;;;21.20;99.90;;;;;;5094451;28;20014;-89
2021/09/10 11:25:22;;;;;;;;;;;21.30;99.90;;;;;;5122852;27;20073;-87
2021/09/10 11:27:47;;;;;;;;;;;21.40;99.90;;;;;;5110082;28;19924;-87
2021/09/10 11:30:14;;;;;;;;;;;21.50;99.90;;;;;;5117164;27;20283;-87
2021/09/10 11:32:40;;;;;;;;;;;21.60;99.90;;;;;;5105760;28;19966;-88
2021/09/10 11:35:22;;;;;;;;;;;21.70;99.90;;;;;;5093241;28;19928;-87
2021/09/10 11:37:56;;;;;;;;;;;21.80;99.90;;;;;;5093474;28;19946;-86
2021/09/10 11:40:31;;;;;;;;;;;21.80;99.90;;;;;;5115458;27;19927;-87
2021/09/10 11:43:06;;;;;;;;;;;21.90;99.90;;;;;;5092287;28;20367;-87
2021/09/10 11:45:34;;;;;;;;;;;21.90;99.90;;;;;;5092004;28;19935;-87
2021/09/10 11:48:01;;;;;;;;;;;22.00;99.90;;;;;;5089398;28;19927;-87
2021/09/10 11:50:42;;;;;;;;;;;22.00;99.90;;;;;;5112929;27;20046;-87
2021/09/10 11:53:34;;;;;;;;;;;22.00;99.90;;;;;;5091342;28;19923;-88
2021/09/10 11:56:06;;;;;;;;;;;21.90;99.90;;;;;;5097347;28;19923;-87
2021/09/10 11:58:33;;;;;;;;;;;21.80;99.90;;;;;;5091413;28;19924;-87
2021/09/10 12:01:22;;;;;;;;;;;21.80;99.90;;;;;;5092552;28;19923;-87
2021/09/10 12:03:49;;;;;;;;;;;21.80;99.90;;;;;;5108231;28;19934;-88
2021/09/10 12:06:25;;;;;;;;;;;21.80;99.90;;;;;;5091076;28;19927;-87
2021/09/10 12:09:06;;;;;;;;;;;21.90;99.90;;;;;;5092061;28;19923;-88
2021/09/10 12:11:31;;;;;;;;;;;21.90;99.90;;;;;;5107045;28;20395;-88
2021/09/10 12:13:57;;;;;;;;;;;22.00;99.90;;;;;;5109582;27;19931;-88
2021/09/10 12:16:23;;;;;;;;;;;22.00;99.90;;;;;;5126532;27;19931;-87
2021/09/10 12:19:04;;;;;;;;;;;22.10;99.90;;;;;;5125761;27;20024;-87
2021/09/10 12:21:30;;;;;;;;;;;22.10;99.90;;;;;;5143855;27;19926;-88
2021/09/10 12:24:25;;;;;;;;;;;22.20;99.90;;;;;;5107740;28;19966;-87
2021/09/10 12:26:52;;;;;;;;;;;22.20;99.90;;;;;;5078469;28;20333;-87
2021/09/10 12:29:24;;;;;;;;;;;22.20;99.90;;;;;;5095216;28;19935;-87
2021/09/10 12:31:49;;;;;;;;;;;22.30;99.90;;;;;;5089904;28;19931;-87
2021/09/10 12:34:15;;;;;;;;;;;22.30;99.90;;;;;;5091083;28;19924;-87
2021/09/10 12:36:41;;;;;;;;;;;22.40;99.90;;;;;;5108696;28;19919;-87
2021/09/10 12:39:06;;;;;;;;;;;22.40;99.90;;;;;;5108245;28;20154;-87
2021/09/10 12:41:32;;;;;;;;;;;22.50;99.90;;;;;;5108524;28;20383;-88
2021/09/10 12:43:57;;;;;;;;;;;22.50;99.90;;;;;;5125695;27;19963;-87
2021/09/10 12:46:23;;;;;;;;;;;22.50;99.90;;;;;;5103842;28;20387;-87
2021/09/10 12:48:48;;;;;;;;;;;22.50;99.90;;;;;;5093087;28;20435;-87
2021/09/10 12:51:14;;;;;;;;;;;22.40;99.90;;;;;;5125061;27;20455;-87
2021/09/10 12:53:41;;;;;;;;;;;22.50;99.90;;;;;;5105515;28;20296;-87
2021/09/10 12:56:06;;;;;;;;;;;22.40;99.90;;;;;;5108263;28;19923;-88
2021/09/10 12:58:32;;;;;;;;;;;22.40;99.90;;;;;;5107922;28;19926;-87
2021/09/10 13:00:57;;;;;;;;;;;22.40;99.90;;;;;;5124244;27;19930;-88
2021/09/10 13:03:23;;;;;;;;;;;22.40;99.90;;;;;;5124642;27;19923;-87
2021/09/10 13:05:48;;;;;;;;;;;22.40;99.90;;;;;;5125703;27;19973;-88
2021/09/10 13:08:14;;;;;;;;;;;22.30;99.90;;;;;;5107814;28;19924;-87
2021/09/10 13:10:40;;;;;;;;;;;22.30;99.90;;;;;;5107731;28;20577;-88
2021/09/10 13:13:05;;;;;;;;;;;22.30;99.90;;;;;;5090098;28;19967;-88
2021/09/10 13:15:31;;;;;;;;;;;22.30;99.90;;;;;;5107108;28;19920;-87
2021/09/10 13:17:56;;;;;;;;;;;22.30;99.90;;;;;;5087991;28;19994;-87
2021/09/10 13:20:22;;;;;;;;;;;22.20;99.90;;;;;;5072939;28;19949;-88
2021/09/10 13:22:48;;;;;;;;;;;22.20;99.90;;;;;;5090809;28;19952;-85
2021/09/10 13:25:13;;;;;;;;;;;22.10;99.90;;;;;;5087899;28;19965;-86
2021/09/10 13:27:39;;;;;;;;;;;22.10;99.90;;;;;;5089554;28;19947;-87
2021/09/10 13:30:05;;;;;;;;;;;22.00;99.90;;;;;;5071224;28;19927;-90
2021/09/10 13:32:31;;;;;;;;;;;22.00;99.90;;;;;;5089374;28;20422;-87
2021/09/10 13:34:56;;;;;;;;;;;22.00;99.90;;;;;;5094917;28;19967;-87
2021/09/10 13:37:24;;;;;;;;;;;22.00;99.90;;;;;;5107387;28;20456;-88
2021/09/10 13:39:49;;;;;;;;;;;22.00;99.90;;;;;;5071713;28;19972;-87
2021/09/10 13:42:16;;;;;;;;;;;22.00;99.90;;;;;;5096338;28;19923;-87
2021/09/10 13:44:41;;;;;;;;;;;22.10;99.90;;;;;;5089374;28;19951;-87
2021/09/10 13:47:07;;;;;;;;;;;22.10;99.90;;;;;;5069952;28;19927;-88
2021/09/10 13:49:33;;;;;;;;;;;22.20;99.90;;;;;;5094806;28;20299;-87
2021/09/10 13:51:58;;;;;;;;;;;22.30;99.90;;;;;;5098321;28;19972;-87
2021/09/10 13:54:24;;;;;;;;;;;22.40;99.90;;;;;;5085939;28;19923;-87
2021/09/10 13:56:50;;;;;;;;;;;22.40;99.90;;;;;;5089402;28;19931;-88
2021/09/10 13:59:16;;;;;;;;;;;22.30;99.90;;;;;;5108677;27;19923;-87
2021/09/10 14:01:57;;;;;;;;;;;22.20;99.90;;;;;;5106373;28;19955;-88
2021/09/10 14:04:24;;;;;;;;;;;22.20;99.90;;;;;;5105716;28;19928;-88
2021/09/10 14:06:50;;;;;;;;;;;22.10;99.90;;;;;;5091274;28;19927;-88
2021/09/10 14:09:15;;;;;;;;;;;22.10;99.90;;;;;;5100675;28;19977;-89
2021/09/10 14:11:41;;;;;;;;;;;22.00;99.90;;;;;;5108800;28;20275;-89
2021/09/10 14:14:07;;;;;;;;;;;22.00;99.90;;;;;;5093890;28;20355;-89
2021/09/10 14:16:32;;;;;;;;;;;21.90;99.90;;;;;;5092750;28;20370;-89